createdAt,value
2022-12-31T00:00:15.536Z,30.159
2022-12-31T00:05:15.515Z,30.165
2022-12-31T00:10:15.535Z,30.165
2022-12-31T00:15:15.643Z,30.170
2022-12-31T00:20:15.546Z,30.169
2022-12-31T00:25:15.672Z,30.173
2022-12-31T00:30:15.757Z,30.171
2022-12-31T00:35:15.773Z,30.170
2022-12-31T00:40:15.755Z,30.171
2022-12-31T00:45:15.592Z,30.173
2022-12-31T00:50:15.651Z,30.175
2022-12-31T00:55:15.684Z,30.174
2022-12-31T01:00:15.703Z,30.176
2022-12-31T01:05:15.748Z,30.175
2022-12-31T01:10:15.657Z,30.178
2022-12-31T01:15:16.756Z,30.177
2022-12-31T01:20:16.841Z,30.177
2022-12-31T01:25:16.641Z,30.177
2022-12-31T01:30:16.761Z,30.174
2022-12-31T01:35:16.799Z,30.171
2022-12-31T01:40:16.750Z,30.171
2022-12-31T01:45:16.863Z,30.172
2022-12-31T01:50:16.847Z,30.169
2022-12-31T01:55:16.748Z,30.171
2022-12-31T02:00:17.003Z,30.170
2022-12-31T02:05:16.843Z,30.167
2022-12-31T02:10:16.763Z,30.167
2022-12-31T02:15:16.918Z,30.163
2022-12-31T02:20:16.823Z,30.164
2022-12-31T02:25:16.864Z,30.159
2022-12-31T02:30:16.892Z,30.160
2022-12-31T02:35:16.895Z,30.160
2022-12-31T02:40:16.987Z,30.160
2022-12-31T02:45:16.834Z,30.162
2022-12-31T02:50:16.993Z,30.164
2022-12-31T02:55:16.874Z,30.160
2022-12-31T03:00:17.013Z,30.161
2022-12-31T03:05:16.958Z,30.163
2022-12-31T03:10:16.960Z,30.163
2022-12-31T03:15:17.034Z,30.162
2022-12-31T03:20:16.952Z,30.161
2022-12-31T03:25:16.987Z,30.159
2022-12-31T03:30:17.014Z,30.159
2022-12-31T03:35:17.003Z,30.156
2022-12-31T03:40:16.979Z,30.158
2022-12-31T03:45:17.031Z,30.155
2022-12-31T03:50:17.069Z,30.155
2022-12-31T03:55:17.222Z,30.155
2022-12-31T04:00:17.056Z,30.153
2022-12-31T04:05:17.061Z,30.154
2022-12-31T04:10:17.041Z,30.153
2022-12-31T04:15:17.140Z,30.152
2022-12-31T04:20:17.066Z,30.150
2022-12-31T04:25:17.145Z,30.152
2022-12-31T04:30:17.347Z,30.151
2022-12-31T04:35:17.108Z,30.150
2022-12-31T04:40:17.147Z,30.147
2022-12-31T04:45:17.101Z,30.146
2022-12-31T04:50:17.150Z,30.141
2022-12-31T04:55:17.569Z,30.137
2022-12-31T05:00:16.208Z,30.134
2022-12-31T05:05:16.197Z,30.134
2022-12-31T05:10:16.173Z,30.132
2022-12-31T05:15:17.268Z,30.131
2022-12-31T05:20:17.253Z,30.130
2022-12-31T05:25:17.193Z,30.131
2022-12-31T05:30:17.200Z,30.132
2022-12-31T05:35:17.485Z,30.133
2022-12-31T05:40:17.284Z,30.135
2022-12-31T05:45:17.213Z,30.132
2022-12-31T05:50:17.308Z,30.130
2022-12-31T05:55:17.248Z,30.126
2022-12-31T06:00:17.232Z,30.128
2022-12-31T06:05:21.076Z,30.128
2022-12-31T06:10:17.273Z,30.126
2022-12-31T06:15:17.339Z,30.125
2022-12-31T06:20:17.305Z,30.125
2022-12-31T06:25:17.436Z,30.125
2022-12-31T06:30:17.289Z,30.123
2022-12-31T06:35:17.413Z,30.126
2022-12-31T06:40:17.440Z,30.129
2022-12-31T06:45:17.426Z,30.130
2022-12-31T06:50:17.379Z,30.129
2022-12-31T06:55:15.416Z,30.132
2022-12-31T07:00:15.507Z,30.132
2022-12-31T07:05:15.372Z,30.134
2022-12-31T07:10:15.500Z,30.137
2022-12-31T07:15:15.614Z,30.134
2022-12-31T07:20:15.392Z,30.134
2022-12-31T07:25:15.753Z,30.132
2022-12-31T07:30:15.668Z,30.131
2022-12-31T07:35:15.573Z,30.131
2022-12-31T07:40:15.528Z,30.130
2022-12-31T07:45:15.509Z,30.129
2022-12-31T07:50:15.831Z,30.127
2022-12-31T07:55:15.457Z,30.127
2022-12-31T08:00:15.514Z,30.124
2022-12-31T08:05:15.555Z,30.126
2022-12-31T08:10:18.066Z,30.122
2022-12-31T08:15:15.621Z,30.121
2022-12-31T08:20:15.608Z,30.125
2022-12-31T08:25:15.622Z,30.121
2022-12-31T08:30:15.743Z,30.121
2022-12-31T08:35:15.650Z,30.117
2022-12-31T08:40:15.683Z,30.115
2022-12-31T08:45:15.603Z,30.112
2022-12-31T08:50:15.658Z,30.107
2022-12-31T08:55:15.638Z,30.111
2022-12-31T09:00:15.636Z,30.103
2022-12-31T09:05:15.611Z,30.107
2022-12-31T09:10:15.744Z,30.103
2022-12-31T09:15:15.698Z,30.109
2022-12-31T09:20:15.715Z,30.104
2022-12-31T09:25:15.760Z,30.101
2022-12-31T09:30:15.797Z,30.101
2022-12-31T09:35:15.698Z,30.099
2022-12-31T09:40:16.054Z,30.097
2022-12-31T09:45:15.843Z,30.097
2022-12-31T09:50:16.041Z,30.095
2022-12-31T09:55:15.953Z,30.093
2022-12-31T10:00:15.781Z,30.088
2022-12-31T10:05:15.763Z,30.085
2022-12-31T10:10:15.773Z,30.085
2022-12-31T10:15:15.949Z,30.084
2022-12-31T10:20:15.818Z,30.080
2022-12-31T10:25:15.992Z,30.081
2022-12-31T10:30:15.936Z,30.083
2022-12-31T10:35:15.843Z,30.083
2022-12-31T10:40:15.854Z,30.082
2022-12-31T10:45:15.891Z,30.085
2022-12-31T10:50:15.940Z,30.084
2022-12-31T10:55:16.032Z,30.083
2022-12-31T11:00:16.031Z,30.084
2022-12-31T11:05:15.948Z,30.083
2022-12-31T11:10:16.060Z,30.081
2022-12-31T11:15:15.945Z,30.083
2022-12-31T11:20:16.127Z,30.082
2022-12-31T11:25:15.979Z,30.083
2022-12-31T11:30:16.194Z,30.085
2022-12-31T11:35:16.025Z,30.088
2022-12-31T11:40:16.035Z,30.092
2022-12-31T11:45:16.020Z,30.094
2022-12-31T11:50:16.271Z,30.096
2022-12-31T11:55:16.001Z,30.093
2022-12-31T12:00:16.069Z,30.094
2022-12-31T12:05:16.461Z,30.094
2022-12-31T12:10:16.043Z,30.093
2022-12-31T12:15:16.290Z,30.095
2022-12-31T12:20:16.158Z,30.089
2022-12-31T12:25:16.145Z,30.087
2022-12-31T12:30:16.099Z,30.091
2022-12-31T12:35:16.107Z,30.087
2022-12-31T12:40:16.208Z,30.086
2022-12-31T12:45:16.092Z,30.085
2022-12-31T12:50:16.276Z,30.083
2022-12-31T12:55:16.070Z,30.081
2022-12-31T13:00:16.192Z,30.080
2022-12-31T13:05:16.144Z,30.083
2022-12-31T13:10:16.206Z,30.085
2022-12-31T13:15:16.151Z,30.083
2022-12-31T13:20:16.327Z,30.081
2022-12-31T13:25:16.300Z,30.079
2022-12-31T13:30:16.215Z,30.078
2022-12-31T13:35:16.182Z,30.077
2022-12-31T13:40:16.350Z,30.079
2022-12-31T13:45:16.440Z,30.080
2022-12-31T13:50:16.474Z,30.079
2022-12-31T13:55:16.227Z,30.081
2022-12-31T14:00:16.293Z,30.078
2022-12-31T14:05:16.420Z,30.084
2022-12-31T14:10:16.241Z,30.080
2022-12-31T14:15:16.332Z,30.083
2022-12-31T14:20:16.452Z,30.084
2022-12-31T14:25:16.352Z,30.083
2022-12-31T14:30:16.395Z,30.079
2022-12-31T14:35:16.393Z,30.078
2022-12-31T14:40:16.330Z,30.069
2022-12-31T14:45:16.314Z,30.069
2022-12-31T14:50:16.363Z,30.064
2022-12-31T14:55:16.511Z,30.060
2022-12-31T15:00:16.434Z,30.053
2022-12-31T15:05:16.443Z,30.052
2022-12-31T15:10:16.450Z,30.054
2022-12-31T15:15:16.424Z,30.045
2022-12-31T15:20:17.452Z,30.043
2022-12-31T15:25:16.439Z,30.040
2022-12-31T15:30:16.436Z,30.036
2022-12-31T15:35:16.482Z,30.031
2022-12-31T15:40:16.475Z,30.028
2022-12-31T15:45:16.435Z,30.024
2022-12-31T15:50:16.538Z,30.020
2022-12-31T15:55:16.474Z,30.026
2022-12-31T16:00:16.613Z,30.021
2022-12-31T16:05:16.572Z,30.024
2022-12-31T16:10:16.754Z,30.016
2022-12-31T16:15:16.725Z,30.013
2022-12-31T16:20:16.672Z,30.007
2022-12-31T16:25:33.036Z,30.007
2022-12-31T16:30:16.588Z,30.004
2022-12-31T16:35:23.031Z,29.998
2022-12-31T16:40:16.778Z,29.996
2022-12-31T16:45:16.535Z,29.994
2022-12-31T16:50:16.744Z,29.991
2022-12-31T16:55:16.580Z,29.987
2022-12-31T17:00:16.961Z,29.990
2022-12-31T17:05:16.702Z,29.991
2022-12-31T17:10:16.679Z,29.992
2022-12-31T17:15:16.692Z,29.987
2022-12-31T17:20:16.686Z,29.988
2022-12-31T17:25:16.863Z,29.983
2022-12-31T17:30:16.720Z,29.986
2022-12-31T17:35:16.701Z,29.987
2022-12-31T17:40:52.735Z,29.984
2022-12-31T17:45:16.767Z,29.982
2022-12-31T17:50:16.807Z,29.977
2022-12-31T17:55:16.745Z,29.983
2022-12-31T18:00:16.776Z,29.981
2022-12-31T18:05:16.849Z,29.979
2022-12-31T18:10:16.806Z,29.983
2022-12-31T18:15:16.792Z,29.978
2022-12-31T18:20:16.860Z,29.975
2022-12-31T18:25:16.824Z,29.969
2022-12-31T18:30:16.966Z,29.971
2022-12-31T18:35:40.657Z,29.965
2022-12-31T18:40:16.807Z,29.962
2022-12-31T18:45:16.998Z,29.959
2022-12-31T18:50:17.036Z,29.958
2022-12-31T18:55:16.888Z,29.955
2022-12-31T19:00:16.914Z,29.953
2022-12-31T19:05:16.814Z,29.954
2022-12-31T19:10:16.949Z,29.954
2022-12-31T19:15:17.036Z,29.955
2022-12-31T19:20:16.899Z,29.953
2022-12-31T19:25:17.013Z,29.950
2022-12-31T19:30:16.934Z,29.954
2022-12-31T19:35:17.186Z,29.955
2022-12-31T19:40:17.145Z,29.953
2022-12-31T19:45:16.999Z,29.951
2022-12-31T19:50:17.090Z,29.952
2022-12-31T19:55:16.993Z,29.950
2022-12-31T20:00:17.141Z,29.948
2022-12-31T20:05:17.000Z,29.947
2022-12-31T20:10:17.027Z,29.950
2022-12-31T20:15:17.178Z,29.947
2022-12-31T20:20:17.016Z,29.941
2022-12-31T20:25:17.138Z,29.941
2022-12-31T20:30:17.016Z,29.940
2022-12-31T20:35:17.374Z,29.942
2022-12-31T20:40:17.088Z,29.935
2022-12-31T20:45:17.209Z,29.935
2022-12-31T20:50:17.184Z,29.929
2022-12-31T20:55:17.214Z,29.923
2022-12-31T21:00:17.132Z,29.923
2022-12-31T21:05:17.458Z,29.918
2022-12-31T21:10:17.197Z,29.914
2022-12-31T21:15:17.220Z,29.915
2022-12-31T21:20:17.211Z,29.914
2022-12-31T21:25:17.209Z,29.915
2022-12-31T21:30:19.057Z,29.913
2022-12-31T21:35:54.058Z,29.910
2022-12-31T21:40:17.343Z,29.912
2022-12-31T21:45:17.180Z,29.912
2022-12-31T21:50:17.401Z,29.909
2022-12-31T21:55:17.209Z,29.905
2022-12-31T22:00:41.151Z,29.898
2022-12-31T22:05:23.140Z,29.900
2022-12-31T22:10:17.285Z,29.897
2022-12-31T22:15:17.248Z,29.894
2022-12-31T22:20:27.242Z,29.891
2022-12-31T22:25:17.354Z,29.888
2022-12-31T22:30:17.236Z,29.885
2022-12-31T22:35:17.294Z,29.880
2022-12-31T22:40:17.371Z,29.880
2022-12-31T22:45:17.377Z,29.877
2022-12-31T22:50:17.378Z,29.872
2022-12-31T22:55:17.354Z,29.872
2022-12-31T23:00:17.475Z,29.870
2022-12-31T23:05:17.405Z,29.866
2022-12-31T23:10:15.376Z,29.865
2022-12-31T23:15:15.386Z,29.865
2022-12-31T23:20:15.429Z,29.863
2022-12-31T23:25:15.573Z,29.860
2022-12-31T23:30:15.652Z,29.860
2022-12-31T23:35:15.593Z,29.863
2022-12-31T23:40:20.844Z,29.858
2022-12-31T23:45:15.518Z,29.858
2022-12-31T23:50:15.568Z,29.855
2022-12-31T23:55:15.463Z,29.855
